createdAt,value
2024-02-07T00:03:58.418Z,3.7
2024-02-07T00:12:42.957Z,3.6
2024-02-07T00:20:29.569Z,3.5
2024-02-07T00:28:45.273Z,3.4
2024-02-07T00:37:00.658Z,3.3
2024-02-07T00:45:16.247Z,3.2
2024-02-07T00:53:31.789Z,3.1
2024-02-07T01:01:47.419Z,3.2
2024-02-07T01:10:02.879Z,3.1
2024-02-07T01:18:18.550Z,3
2024-02-07T01:26:33.935Z,2.9
2024-02-07T01:34:49.564Z,2.9
2024-02-07T01:43:05.080Z,2.9
2024-02-07T01:51:20.611Z,2.9
2024-02-07T02:07:51.821Z,3.2
2024-02-07T02:16:07.311Z,3.3
2024-02-07T02:32:38.658Z,3.7
2024-02-07T02:40:54.145Z,3.7
2024-02-07T02:49:09.750Z,3.7
2024-02-07T02:57:25.169Z,3.6
2024-02-07T03:13:56.348Z,3.4
2024-02-07T03:30:27.488Z,3.1
2024-02-07T03:38:43.008Z,3
2024-02-07T03:46:58.683Z,2.9
2024-02-07T03:55:14.170Z,2.9
2024-02-07T04:03:29.885Z,2.8
2024-02-07T04:11:45.251Z,2.8
2024-02-07T04:20:00.790Z,2.7
2024-02-07T04:28:16.309Z,2.7
2024-02-07T04:36:31.816Z,2.7
2024-02-07T04:53:02.922Z,2.6
2024-02-07T05:01:18.404Z,2.6
2024-02-07T05:09:33.901Z,2.5
2024-02-07T05:17:49.453Z,2.4
2024-02-07T05:26:04.932Z,2.4
2024-02-07T05:34:20.640Z,2.4
2024-02-07T05:42:35.995Z,2.4
2024-02-07T05:50:51.686Z,2.5
2024-02-07T05:59:07.122Z,2.6
2024-02-07T06:07:22.682Z,2.6
2024-02-07T06:23:53.643Z,2.7
2024-02-07T06:32:09.149Z,2.8
2024-02-07T06:40:24.728Z,3
2024-02-07T06:48:40.249Z,3.3
2024-02-07T06:56:55.800Z,3.5
2024-02-07T07:05:11.460Z,3.7
2024-02-07T07:13:26.928Z,4
2024-02-07T07:21:42.438Z,4.5
2024-02-07T07:29:58.003Z,4.8
2024-02-07T07:46:29.207Z,5.3
2024-02-07T07:54:44.901Z,5.4
2024-02-07T08:03:00.483Z,5.5
2024-02-07T08:11:16.130Z,5.7
2024-02-07T08:19:31.798Z,5.7
2024-02-07T08:27:47.365Z,6.2
2024-02-07T09:09:05.744Z,6.5
2024-02-07T09:25:37.184Z,6.6
2024-02-07T09:42:08.462Z,7.3
2024-02-07T09:59:08.666Z,7.9
2024-02-07T10:15:11.345Z,7.5
2024-02-07T10:31:43.235Z,8.3
2024-02-07T10:39:58.474Z,8.2
2024-02-07T10:48:14.337Z,8.2
2024-02-07T10:56:29.960Z,8
2024-02-07T11:05:14.469Z,7.7
2024-02-07T11:13:01.425Z,8.1
2024-02-07T11:21:17.081Z,8.5
2024-02-07T11:29:32.822Z,9.4
2024-02-07T11:37:48.611Z,8.8
2024-02-07T11:54:20.179Z,9.5
2024-02-07T12:02:35.891Z,9.1
2024-02-07T12:10:51.739Z,9.5
2024-02-07T12:19:07.449Z,8.8
2024-02-07T12:27:25.209Z,8.3
2024-02-07T12:35:39.058Z,8.5
2024-02-07T12:43:54.723Z,8.1
2024-02-07T12:52:10.429Z,8.4
2024-02-07T13:00:54.969Z,8.8
2024-02-07T13:16:57.702Z,9.4
2024-02-07T13:25:13.448Z,9.9
2024-02-07T13:33:29.155Z,10.1
2024-02-07T13:41:44.981Z,10.2
2024-02-07T13:50:00.722Z,10.7
2024-02-07T13:58:16.520Z,12.1
2024-02-07T14:06:32.421Z,13.2
2024-02-07T14:14:48.355Z,14
2024-02-07T14:23:04.407Z,13.6
2024-02-07T14:48:17.830Z,12.2
2024-02-07T14:56:08.321Z,11.1
2024-02-07T15:04:24.116Z,10.7
2024-02-07T15:12:39.881Z,10.4
2024-02-07T15:20:55.769Z,10.1
2024-02-07T15:29:11.499Z,9.7
2024-02-07T15:37:27.292Z,9.4
2024-02-07T15:45:43.074Z,9.2
2024-02-07T16:02:14.609Z,9
2024-02-07T16:18:46.124Z,8.9
2024-02-07T16:27:01.902Z,8.9
2024-02-07T16:35:17.672Z,8.8
2024-02-07T16:43:33.516Z,8.9
2024-02-07T16:51:49.204Z,8.9
2024-02-07T17:00:04.961Z,8.8
2024-02-07T17:08:20.692Z,8.8
2024-02-07T17:16:36.581Z,8.7
2024-02-07T17:24:52.269Z,8.7
2024-02-07T18:14:55.412Z,8.2
2024-02-07T18:22:42.413Z,8.1
2024-02-07T18:39:13.756Z,7.9
2024-02-07T18:47:29.488Z,7.9
2024-02-07T19:04:00.912Z,7.6
2024-02-07T19:12:16.634Z,7.6
2024-02-07T19:20:32.410Z,7.5
2024-02-07T19:28:48.060Z,7.4
2024-02-07T19:37:03.747Z,7.4
2024-02-07T19:53:35.169Z,7.3
2024-02-07T20:01:50.851Z,7.3
2024-02-07T20:18:22.230Z,7.3
2024-02-07T20:26:37.914Z,7.3
2024-02-07T20:34:53.559Z,7.3
2024-02-07T20:51:24.938Z,7.2
2024-02-07T20:59:40.584Z,7.2
2024-02-07T21:07:56.319Z,7.2
2024-02-07T21:16:11.989Z,7.1
2024-02-07T21:24:27.713Z,7.1
2024-02-07T21:32:43.396Z,7.1
2024-02-07T21:40:59.121Z,7.1
2024-02-07T21:49:14.743Z,7.1
2024-02-07T21:57:30.421Z,7.1
2024-02-07T22:05:46.043Z,7.1
2024-02-07T22:14:01.837Z,7.1
2024-02-07T22:22:17.512Z,7.1
2024-02-07T22:30:33.149Z,7.1
2024-02-07T22:38:48.795Z,7.1
2024-02-07T23:03:35.937Z,7.1
2024-02-07T23:11:51.554Z,7.1
2024-02-07T23:20:07.288Z,7.1
2024-02-07T23:28:22.895Z,7
2024-02-07T23:36:38.562Z,7.1
2024-02-07T23:44:54.240Z,7.1
2024-02-07T23:53:09.964Z,7
